Time;durP1;ratioP1;P1;durP2;ratioP2;P2;SDS_P1;SDS_P2;PMS_P1;PMS_P2;Temp;Humidity;BMP_temperature;BMP_pressure;BME280_temperature;BME280_humidity;BME280_pressure;Samples;Min_cycle;Max_cycle;Signal;HPM_P1;HPM_P2
2023/03/12 00:01:28;;;;;;;13.18;7.43;;;;;;;;;;4932633;29;20059;-78
2023/03/12 00:04:01;;;;;;;;;;;;;;;;;;4933098;29;20525;-77
2023/03/12 00:06:28;;;;;;;8.93;6.70;;;;;;;;;;4945918;28;19945;-78
2023/03/12 00:09:01;;;;;;;8.70;6.07;;;;;;;;;;4930814;29;20071;-78
2023/03/12 00:11:30;;;;;;;13.10;5.80;;;;;;;;;;4924425;29;20047;-78
2023/03/12 00:13:59;;;;;;;7.22;6.25;;;;;;;;;;4933067;29;20498;-77
2023/03/12 00:16:27;;;;;;;7.50;5.35;;;;;;;;;;4954283;23;20051;-77
2023/03/12 00:18:59;;;;;;;9.20;5.75;;;;;;;;;;4947332;28;20062;-78
2023/03/12 00:21:29;;;;;;;7.88;5.40;;;;;;;;;;4945797;29;20051;-78
2023/03/12 00:23:58;;;;;;;5.60;4.93;;;;;;;;;;4933494;28;20055;-78
2023/03/12 00:26:25;;;;;;;6.32;5.28;;;;;;;;;;4937496;29;20063;-77
2023/03/12 00:28:54;;;;;;;7.95;5.45;;;;;;;;;;4935213;28;20058;-78
2023/03/12 00:31:23;;;;;;;6.45;5.47;;;;;;;;;;4952207;29;20054;-78
2023/03/12 00:33:52;;;;;;;6.32;5.43;;;;;;;;;;4947004;28;20055;-78
2023/03/12 00:36:23;;;;;;;7.75;5.20;;;;;;;;;;4938618;28;20059;-78
2023/03/12 00:38:52;;;;;;;5.82;5.28;;;;;;;;;;4937137;28;20062;-77
2023/03/12 00:41:20;;;;;;;9.43;4.80;;;;;;;;;;4949285;28;20047;-77
2023/03/12 00:43:50;;;;;;;6.18;4.88;;;;;;;;;;4965714;28;20057;-78
2023/03/12 00:46:24;;;;;;;7.43;5.18;;;;;;;;;;4949728;28;20581;-77
2023/03/12 00:48:54;;;;;;;9.38;5.38;;;;;;;;;;4950422;28;20051;-77
2023/03/12 00:51:23;;;;;;;7.15;5.13;;;;;;;;;;4936730;28;20057;-78
2023/03/12 00:53:54;;;;;;;5.45;4.68;;;;;;;;;;4948932;28;20067;-78
2023/03/12 00:56:24;;;;;;;16.52;6.40;;;;;;;;;;4949182;28;20051;-78
2023/03/12 00:58:51;;;;;;;7.00;5.60;;;;;;;;;;4964944;28;20058;-78
2023/03/12 01:01:20;;;;;;;5.43;4.20;;;;;;;;;;4934165;29;20043;-78
2023/03/12 01:03:50;;;;;;;6.65;5.25;;;;;;;;;;4948502;28;20048;-78
2023/03/12 01:06:45;;;;;;;6.03;5.53;;;;;;;;;;4949163;28;20046;-78
2023/03/12 01:09:16;;;;;;;7.43;5.03;;;;;;;;;;4946236;28;20501;-78
2023/03/12 01:11:49;;;;;;;6.10;5.15;;;;;;;;;;4945720;28;20087;-78
2023/03/12 01:14:19;;;;;;;6.82;5.53;;;;;;;;;;4946151;28;20509;-78
2023/03/12 01:16:46;;;;;;;7.45;5.88;;;;;;;;;;4949328;28;20039;-78
2023/03/12 01:19:16;;;;;;;4.88;4.35;;;;;;;;;;4944929;28;20051;-78
2023/03/12 01:21:44;;;;;;;6.93;4.93;;;;;;;;;;4933905;28;20532;-78
2023/03/12 01:24:11;;;;;;;7.63;5.57;;;;;;;;;;4947389;28;20051;-78
2023/03/12 01:26:38;;;;;;;7.30;4.90;;;;;;;;;;4949372;28;20493;-78
2023/03/12 01:29:08;;;;;;;6.30;5.70;;;;;;;;;;4950331;28;20536;-78
2023/03/12 01:31:37;;;;;;;5.65;5.07;;;;;;;;;;4949025;28;20051;-78
2023/03/12 01:34:16;;;;;;;6.93;5.22;;;;;;;;;;4935920;29;20050;-78
2023/03/12 01:36:46;;;;;;;6.85;4.72;;;;;;;;;;4946717;28;20062;-78
2023/03/12 01:39:24;;;;;;;6.18;5.13;;;;;;;;;;4959252;28;20058;-78
2023/03/12 01:41:51;;;;;;;6.43;5.10;;;;;;;;;;4931634;28;20050;-78
2023/03/12 01:44:19;;;;;;;10.15;5.45;;;;;;;;;;4951522;28;20047;-78
2023/03/12 01:46:48;;;;;;;6.05;5.47;;;;;;;;;;4931885;28;20496;-78
2023/03/12 01:49:24;;;;;;;6.32;5.47;;;;;;;;;;4949495;29;20048;-78
2023/03/12 01:51:55;;;;;;;8.60;5.22;;;;;;;;;;4952473;28;20437;-78
2023/03/12 01:54:27;;;;;;;7.13;6.13;;;;;;;;;;4966585;28;20043;-78
2023/03/12 01:56:55;;;;;;;9.27;6.75;;;;;;;;;;4949127;28;20043;-78
2023/03/12 01:59:28;;;;;;;8.18;6.53;;;;;;;;;;4936149;29;20051;-78
2023/03/12 02:02:01;;;;;;;6.07;4.63;;;;;;;;;;4949253;28;20051;-78
2023/03/12 02:04:36;;;;;;;5.90;4.60;;;;;;;;;;4955348;28;20058;-78
2023/03/12 02:07:06;;;;;;;10.23;6.70;;;;;;;;;;4952213;28;20568;-78
2023/03/12 02:09:41;;;;;;;7.50;5.47;;;;;;;;;;4950675;28;20052;-78
2023/03/12 02:12:14;;;;;;;9.00;5.72;;;;;;;;;;4948889;28;20058;-78
2023/03/12 02:14:41;;;;;;;6.85;5.70;;;;;;;;;;4953132;28;20067;-78
2023/03/12 02:17:09;;;;;;;6.57;5.30;;;;;;;;;;4935088;29;20070;-77
2023/03/12 02:19:43;;;;;;;7.43;5.50;;;;;;;;;;4937727;29;20063;-78
2023/03/12 02:22:14;;;;;;;7.82;5.60;;;;;;;;;;4947230;28;20054;-78
2023/03/12 02:24:45;;;;;;;7.50;5.93;;;;;;;;;;4952804;29;20056;-78
2023/03/12 02:27:16;;;;;;;7.53;5.70;;;;;;;;;;4951055;28;20051;-78
2023/03/12 02:29:48;;;;;;;5.93;5.28;;;;;;;;;;4954958;28;20390;-78
2023/03/12 02:32:21;;;;;;;10.95;5.38;;;;;;;;;;4966971;28;20058;-78
2023/03/12 02:34:49;;;;;;;8.43;5.63;;;;;;;;;;4951272;28;20386;-78
2023/03/12 02:37:17;;;;;;;7.28;5.53;;;;;;;;;;4950924;28;20331;-78
2023/03/12 02:39:47;;;;;;;5.60;5.00;;;;;;;;;;4952429;28;20057;-78
2023/03/12 02:42:15;;;;;;;7.80;5.63;;;;;;;;;;4945532;28;20051;-78
2023/03/12 02:44:43;;;;;;;11.23;6.20;;;;;;;;;;4966075;28;20416;-78
2023/03/12 02:47:10;;;;;;;7.70;4.57;;;;;;;;;;4946385;28;20054;-78
2023/03/12 02:49:38;;;;;;;6.53;5.07;;;;;;;;;;4953994;29;20501;-78
2023/03/12 02:52:05;;;;;;;8.27;5.13;;;;;;;;;;4948957;28;20446;-78
2023/03/12 02:54:32;;;;;;;11.10;5.57;;;;;;;;;;4951342;28;20067;-78
2023/03/12 02:56:59;;;;;;;5.35;4.85;;;;;;;;;;4949154;28;20043;-78
2023/03/12 02:59:35;;;;;;;7.07;4.63;;;;;;;;;;4938599;29;20059;-78
2023/03/12 03:02:05;;;;;;;6.65;4.78;;;;;;;;;;4929251;29;20398;-78
2023/03/12 03:04:34;;;;;;;5.22;4.57;;;;;;;;;;4937682;29;20055;-78
2023/03/12 03:07:06;;;;;;;6.38;5.13;;;;;;;;;;4935464;29;20054;-78
2023/03/12 03:09:35;;;;;;;8.93;6.25;;;;;;;;;;4953981;28;20050;-78
2023/03/12 03:12:03;;;;;;;7.60;5.55;;;;;;;;;;4950528;28;20047;-77
2023/03/12 03:14:34;;;;;;;5.15;4.65;;;;;;;;;;4948602;29;20047;-77
2023/03/12 03:17:01;;;;;;;8.35;5.22;;;;;;;;;;4942691;28;20394;-78
2023/03/12 03:19:31;;;;;;;7.72;5.82;;;;;;;;;;4935155;29;20494;-77
2023/03/12 03:22:03;;;;;;;6.25;5.00;;;;;;;;;;4949964;28;20374;-77
2023/03/12 03:24:35;;;;;;;5.70;5.07;;;;;;;;;;4953692;29;20055;-78
2023/03/12 03:27:03;;;;;;;10.73;6.57;;;;;;;;;;4934806;28;20047;-77
2023/03/12 03:29:30;;;;;;;6.63;5.35;;;;;;;;;;4932346;28;20047;-77
2023/03/12 03:31:59;;;;;;;12.18;6.95;;;;;;;;;;4960946;28;20609;-77
2023/03/12 03:34:28;;;;;;;7.55;5.80;;;;;;;;;;4964399;28;20433;-78
2023/03/12 03:36:55;;;;;;;7.22;6.35;;;;;;;;;;4951886;28;20043;-78
2023/03/12 03:39:28;;;;;;;9.02;5.82;;;;;;;;;;4953581;28;20055;-78
2023/03/12 03:41:55;;;;;;;8.27;5.57;;;;;;;;;;4965388;28;20054;-78
2023/03/12 03:44:29;;;;;;;8.13;5.97;;;;;;;;;;4951435;28;20055;-78
2023/03/12 03:47:02;;;;;;;7.25;5.80;;;;;;;;;;4945631;28;20047;-78
2023/03/12 03:49:31;;;;;;;9.48;7.65;;;;;;;;;;4967576;28;20502;-77
2023/03/12 03:51:59;;;;;;;8.27;6.32;;;;;;;;;;4950879;28;20039;-78
2023/03/12 03:54:32;;;;;;;;;;;;;;;;;;4953550;29;20395;-78
2023/03/12 03:57:02;;;;;;;8.68;6.60;;;;;;;;;;4948429;28;19942;-78
2023/03/12 03:59:30;;;;;;;8.35;7.53;;;;;;;;;;4952873;29;20047;-78
2023/03/12 04:02:01;;;;;;;9.35;6.57;;;;;;;;;;4934463;29;20414;-78
2023/03/12 04:04:30;;;;;;;8.30;7.18;;;;;;;;;;4952877;29;20501;-78
2023/03/12 04:07:00;;;;;;;7.22;5.70;;;;;;;;;;4933463;28;20046;-78
2023/03/12 04:09:29;;;;;;;7.68;6.45;;;;;;;;;;4935619;29;20066;-78
2023/03/12 04:11:56;;;;;;;9.30;7.13;;;;;;;;;;4946832;28;20047;-77
2023/03/12 04:14:23;;;;;;;8.10;6.55;;;;;;;;;;4952502;29;20062;-78
2023/03/12 04:16:50;;;;;;;11.15;5.97;;;;;;;;;;4931745;28;20056;-79
2023/03/12 04:19:18;;;;;;;8.38;7.20;;;;;;;;;;4936248;29;20518;-78
2023/03/12 04:21:46;;;;;;;8.68;6.65;;;;;;;;;;4950624;28;21267;-78
2023/03/12 04:24:17;;;;;;;9.00;6.25;;;;;;;;;;4966010;28;20074;-78
2023/03/12 04:26:46;;;;;;;11.18;6.03;;;;;;;;;;4954373;28;20051;-78
2023/03/12 04:29:15;;;;;;;10.80;6.72;;;;;;;;;;4949809;28;20055;-78
2023/03/12 04:31:42;;;;;;;8.10;5.53;;;;;;;;;;4950587;28;20169;-77
2023/03/12 04:34:13;;;;;;;9.93;5.70;;;;;;;;;;4938336;28;20050;-78
2023/03/12 04:37:10;;;;;;;8.95;7.00;;;;;;;;;;4951991;28;20047;-78
2023/03/12 04:39:40;;;;;;;10.65;5.45;;;;;;;;;;4951834;29;20055;-78
2023/03/12 04:42:10;;;;;;;7.60;5.82;;;;;;;;;;4948927;28;20051;-78
2023/03/12 04:44:41;;;;;;;13.63;6.38;;;;;;;;;;4946692;28;20395;-78
2023/03/12 04:47:10;;;;;;;8.32;6.60;;;;;;;;;;4949859;28;20062;-78
2023/03/12 04:49:38;;;;;;;7.80;6.47;;;;;;;;;;4948895;28;20042;-78
2023/03/12 04:52:07;;;;;;;8.88;6.75;;;;;;;;;;4930523;29;20653;-77
2023/03/12 04:54:39;;;;;;;6.60;5.63;;;;;;;;;;4947807;28;20055;-78
2023/03/12 04:57:06;;;;;;;7.90;6.20;;;;;;;;;;4933108;29;20080;-78
2023/03/12 04:59:39;;;;;;;9.85;5.18;;;;;;;;;;4966526;28;20725;-78
2023/03/12 05:02:11;;;;;;;6.40;5.43;;;;;;;;;;4944813;28;20059;-78
2023/03/12 05:04:38;;;;;;;7.60;5.50;;;;;;;;;;4946767;28;20081;-78
2023/03/12 05:07:07;;;;;;;7.88;5.25;;;;;;;;;;4947414;28;20043;-77
2023/03/12 05:09:37;;;;;;;6.85;5.03;;;;;;;;;;4935438;29;20054;-78
2023/03/12 05:12:05;;;;;;;6.50;5.38;;;;;;;;;;4945877;28;20051;-77
2023/03/12 05:14:35;;;;;;;9.15;5.18;;;;;;;;;;4949747;28;20427;-78
2023/03/12 05:17:04;;;;;;;8.75;4.93;;;;;;;;;;4949048;28;20040;-78
2023/03/12 05:19:34;;;;;;;5.90;5.30;;;;;;;;;;4952290;28;20047;-78
2023/03/12 05:22:09;;;;;;;13.32;5.18;;;;;;;;;;4948578;28;20054;-77
2023/03/12 05:24:39;;;;;;;6.22;5.20;;;;;;;;;;4935814;29;20051;-78
2023/03/12 05:27:09;;;;;;;5.95;5.10;;;;;;;;;;4950111;28;20054;-78
2023/03/12 05:29:40;;;;;;;7.65;6.63;;;;;;;;;;4951776;28;20051;-78
2023/03/12 05:32:10;;;;;;;5.82;5.15;;;;;;;;;;4947273;28;20052;-78
2023/03/12 05:34:37;;;;;;;6.60;4.50;;;;;;;;;;4964116;28;20437;-77
2023/03/12 05:37:10;;;;;;;5.32;4.72;;;;;;;;;;4950117;28;20036;-78
2023/03/12 05:39:45;;;;;;;6.03;4.82;;;;;;;;;;4936253;28;20055;-78
2023/03/12 05:42:16;;;;;;;5.18;4.53;;;;;;;;;;4951735;28;20059;-78
2023/03/12 05:45:11;;;;;;;5.53;4.38;;;;;;;;;;4951031;28;20062;-78
2023/03/12 05:47:42;;;;;;;9.63;5.05;;;;;;;;;;4932392;29;20054;-78
2023/03/12 05:50:15;;;;;;;7.50;4.43;;;;;;;;;;4943211;28;20051;-78
2023/03/12 05:52:50;;;;;;;6.00;4.15;;;;;;;;;;4949774;28;20055;-78
2023/03/12 05:55:23;;;;;;;4.38;3.58;;;;;;;;;;4939580;28;20051;-78
2023/03/12 05:57:53;;;;;;;;;;;;;;;;;;4955352;28;20418;-77
2023/03/12 06:00:21;;;;;;;8.73;4.43;;;;;;;;;;4951682;28;19929;-78
2023/03/12 06:02:57;;;;;;;5.75;4.30;;;;;;;;;;4934369;28;20051;-77
2023/03/12 06:05:27;;;;;;;5.60;3.58;;;;;;;;;;4948692;28;20055;-78
2023/03/12 06:07:59;;;;;;;6.18;4.20;;;;;;;;;;4962748;28;20409;-78
2023/03/12 06:10:29;;;;;;;4.82;4.18;;;;;;;;;;4949240;28;20058;-77
2023/03/12 06:12:57;;;;;;;5.88;5.22;;;;;;;;;;4949427;29;20063;-78
2023/03/12 06:15:24;;;;;;;8.02;4.90;;;;;;;;;;4950152;28;20055;-78
2023/03/12 06:17:52;;;;;;;6.45;4.60;;;;;;;;;;4960169;23;20513;-77
2023/03/12 06:20:24;;;;;;;4.78;4.03;;;;;;;;;;4949804;28;20066;-78
2023/03/12 06:22:51;;;;;;;6.85;4.85;;;;;;;;;;4949633;29;20051;-77
2023/03/12 06:25:20;;;;;;;10.45;5.25;;;;;;;;;;4941820;28;20054;-77
2023/03/12 06:27:47;;;;;;;5.68;4.30;;;;;;;;;;4944079;28;20047;-77
2023/03/12 06:30:19;;;;;;;6.75;4.90;;;;;;;;;;4914016;29;20056;-77
2023/03/12 06:32:54;;;;;;;10.07;6.38;;;;;;;;;;4932435;29;20055;-77
2023/03/12 06:35:21;;;;;;;6.90;5.57;;;;;;;;;;4932052;29;20047;-77
2023/03/12 06:37:48;;;;;;;8.98;5.88;;;;;;;;;;4949782;28;20054;-77
2023/03/12 06:40:16;;;;;;;12.88;6.72;;;;;;;;;;4934545;29;20047;-77
2023/03/12 06:42:45;;;;;;;9.10;6.47;;;;;;;;;;4933256;29;20052;-77
2023/03/12 06:45:14;;;;;;;5.82;5.05;;;;;;;;;;4947971;29;20064;-77
2023/03/12 06:47:44;;;;;;;6.72;5.75;;;;;;;;;;4947079;28;20052;-77
2023/03/12 06:50:11;;;;;;;11.15;6.00;;;;;;;;;;4953467;28;20047;-77
2023/03/12 06:52:41;;;;;;;8.45;5.85;;;;;;;;;;4931128;29;20048;-77
2023/03/12 06:55:09;;;;;;;10.13;6.85;;;;;;;;;;4947554;28;20426;-77
2023/03/12 06:57:38;;;;;;;8.45;6.28;;;;;;;;;;4919348;29;20062;-77
2023/03/12 07:00:11;;;;;;;10.98;6.90;;;;;;;;;;4918530;29;20058;-77
2023/03/12 07:02:40;;;;;;;8.95;6.43;;;;;;;;;;4932566;29;20440;-77
2023/03/12 07:05:09;;;;;;;6.85;5.85;;;;;;;;;;4934183;29;20052;-78
2023/03/12 07:07:37;;;;;;;8.52;6.05;;;;;;;;;;4946811;28;20052;-77
2023/03/12 07:10:13;;;;;;;7.10;5.80;;;;;;;;;;4936078;29;20497;-77
2023/03/12 07:12:41;;;;;;;8.82;6.45;;;;;;;;;;4933909;29;20063;-77
2023/03/12 07:15:10;;;;;;;9.02;7.00;;;;;;;;;;4948928;28;20043;-77
2023/03/12 07:17:37;;;;;;;10.18;6.10;;;;;;;;;;4931764;29;20043;-78
2023/03/12 07:20:08;;;;;;;7.55;6.80;;;;;;;;;;4929810;29;20048;-77
2023/03/12 07:22:39;;;;;;;9.02;7.05;;;;;;;;;;4930040;29;20048;-77
2023/03/12 07:25:13;;;;;;;7.80;6.38;;;;;;;;;;4936230;29;20066;-77
2023/03/12 07:27:41;;;;;;;7.90;5.72;;;;;;;;;;4916385;29;20531;-77
2023/03/12 07:30:11;;;;;;;10.32;7.72;;;;;;;;;;4925418;29;20059;-77
2023/03/12 07:32:38;;;;;;;9.35;7.72;;;;;;;;;;4929913;29;20054;-78
2023/03/12 07:35:06;;;;;;;12.45;8.50;;;;;;;;;;4933367;29;20051;-78
2023/03/12 07:37:33;;;;;;;11.20;7.05;;;;;;;;;;4928323;29;20047;-77
2023/03/12 07:40:06;;;;;;;7.90;6.97;;;;;;;;;;4926111;29;20442;-77
2023/03/12 07:42:33;;;;;;;8.18;7.25;;;;;;;;;;4930015;29;20054;-78
2023/03/12 07:45:00;;;;;;;8.43;6.57;;;;;;;;;;4947738;28;20047;-78
2023/03/12 07:47:32;;;;;;;11.02;8.13;;;;;;;;;;4928155;29;20055;-78
2023/03/12 07:50:01;;;;;;;10.25;7.63;;;;;;;;;;4925888;29;20063;-78
2023/03/12 07:52:29;;;;;;;9.98;7.20;;;;;;;;;;4930724;29;20172;-77
2023/03/12 07:54:57;;;;;;;14.65;9.00;;;;;;;;;;4945080;28;20056;-77
2023/03/12 07:57:24;;;;;;;9.88;7.47;;;;;;;;;;4926770;29;20431;-78
2023/03/12 07:59:54;;;;;;;8.73;7.85;;;;;;;;;;4948111;28;20618;-78
2023/03/12 08:02:23;;;;;;;12.90;7.97;;;;;;;;;;4944194;28;20063;-77
2023/03/12 08:04:52;;;;;;;8.00;7.20;;;;;;;;;;4927623;29;20406;-77
2023/03/12 08:07:22;;;;;;;8.93;7.55;;;;;;;;;;4927304;29;20039;-77
2023/03/12 08:09:49;;;;;;;10.88;7.45;;;;;;;;;;4929170;29;20067;-78
2023/03/12 08:12:16;;;;;;;8.20;6.35;;;;;;;;;;4929805;29;20070;-78
2023/03/12 08:14:46;;;;;;;13.15;8.27;;;;;;;;;;4947947;29;20056;-76
2023/03/12 08:17:19;;;;;;;8.40;7.53;;;;;;;;;;4935002;29;20050;-77
2023/03/12 08:19:46;;;;;;;9.80;7.50;;;;;;;;;;4942163;29;20060;-77
2023/03/12 08:22:19;;;;;;;11.35;7.43;;;;;;;;;;4931563;29;20051;-77
2023/03/12 08:24:46;;;;;;;17.45;7.43;;;;;;;;;;4914651;29;20060;-77
2023/03/12 08:27:16;;;;;;;10.98;7.00;;;;;;;;;;4929397;29;20048;-78
2023/03/12 08:29:43;;;;;;;7.78;6.38;;;;;;;;;;4946668;28;20044;-78
2023/03/12 08:32:10;;;;;;;9.85;8.10;;;;;;;;;;4928194;29;20063;-78
2023/03/12 08:34:38;;;;;;;9.50;8.10;;;;;;;;;;4928175;29;20055;-78
2023/03/12 08:37:05;;;;;;;11.43;7.43;;;;;;;;;;4944340;28;20047;-78
2023/03/12 08:39:34;;;;;;;8.75;7.03;;;;;;;;;;4931805;29;20067;-78
2023/03/12 08:42:01;;;;;;;9.38;7.05;;;;;;;;;;4945723;28;20391;-78
2023/03/12 08:44:31;;;;;;;11.48;7.50;;;;;;;;;;4924210;29;20421;-78
2023/03/12 08:46:58;;;;;;;8.07;6.72;;;;;;;;;;4927690;29;20345;-78
2023/03/12 08:49:26;;;;;;;10.48;7.40;;;;;;;;;;4936565;29;20044;-78
2023/03/12 08:51:53;;;;;;;7.95;6.38;;;;;;;;;;4928713;29;20044;-78
2023/03/12 08:54:22;;;;;;;9.98;6.70;;;;;;;;;;4922055;29;20052;-78
2023/03/12 08:56:51;;;;;;;8.23;6.68;;;;;;;;;;4925355;29;20051;-78
2023/03/12 08:59:21;;;;;;;8.18;6.93;;;;;;;;;;4926809;29;20047;-78
2023/03/12 09:01:51;;;;;;;9.57;8.43;;;;;;;;;;4945544;28;20869;-78
2023/03/12 09:04:20;;;;;;;10.75;6.43;;;;;;;;;;4928490;29;20494;-78
2023/03/12 09:06:50;;;;;;;9.18;8.30;;;;;;;;;;4941921;28;20075;-78
2023/03/12 09:09:20;;;;;;;8.13;6.57;;;;;;;;;;4945371;29;20697;-78
2023/03/12 09:11:47;;;;;;;8.63;7.43;;;;;;;;;;4930060;29;20055;-78
2023/03/12 09:14:18;;;;;;;10.05;7.65;;;;;;;;;;4927487;29;20498;-78
2023/03/12 09:16:45;;;;;;;8.90;6.32;;;;;;;;;;4928561;29;20069;-78
2023/03/12 09:19:12;;;;;;;10.82;8.02;;;;;;;;;;4931602;29;20046;-78
2023/03/12 09:21:39;;;;;;;11.80;8.95;;;;;;;;;;4925097;29;20080;-78
2023/03/12 09:24:07;;;;;;;9.88;7.82;;;;;;;;;;4929717;29;20413;-78
2023/03/12 09:26:34;;;;;;;11.43;8.23;;;;;;;;;;4931770;29;20525;-78
2023/03/12 09:29:01;;;;;;;9.32;7.68;;;;;;;;;;4920162;29;20052;-78
2023/03/12 09:31:30;;;;;;;14.35;8.40;;;;;;;;;;4927387;29;20048;-78
2023/03/12 09:33:57;;;;;;;10.63;8.13;;;;;;;;;;4927372;29;20047;-78
2023/03/12 09:36:26;;;;;;;9.20;7.82;;;;;;;;;;4929258;29;20052;-78
2023/03/12 09:38:58;;;;;;;9.45;8.15;;;;;;;;;;4930417;29;20075;-78
2023/03/12 09:41:28;;;;;;;10.38;8.90;;;;;;;;;;4936027;29;20051;-78
2023/03/12 09:44:02;;;;;;;15.25;8.65;;;;;;;;;;4945057;28;20048;-79
2023/03/12 09:46:37;;;;;;;9.05;7.53;;;;;;;;;;4946951;29;20044;-79
2023/03/12 09:49:13;;;;;;;8.18;7.32;;;;;;;;;;4930111;29;20043;-78
2023/03/12 09:51:45;;;;;;;9.48;7.07;;;;;;;;;;4929259;29;20493;-78
2023/03/12 09:54:20;;;;;;;9.20;7.18;;;;;;;;;;4945651;28;20048;-79
2023/03/12 09:56:47;;;;;;;11.30;7.03;;;;;;;;;;4949801;28;20051;-78
2023/03/12 09:59:17;;;;;;;11.95;7.15;;;;;;;;;;4934236;29;20055;-79
2023/03/12 10:01:52;;;;;;;8.87;7.90;;;;;;;;;;4932027;29;20055;-78
2023/03/12 10:04:29;;;;;;;10.18;8.18;;;;;;;;;;4929957;29;20062;-78
2023/03/12 10:07:02;;;;;;;10.18;8.10;;;;;;;;;;4932122;29;21644;-79
2023/03/12 10:09:38;;;;;;;10.13;8.77;;;;;;;;;;4934892;29;20051;-78
2023/03/12 10:12:17;;;;;;;7.95;7.07;;;;;;;;;;4943285;29;20202;-79
2023/03/12 10:14:57;;;;;;;14.95;9.93;;;;;;;;;;4930816;29;20414;-79
2023/03/12 10:17:37;;;;;;;11.48;9.00;;;;;;;;;;4910138;29;20062;-79
2023/03/12 10:20:27;;;;;;;11.20;9.05;;;;;;;;;;4924925;29;20044;-80
2023/03/12 10:23:00;;;;;;;12.75;8.25;;;;;;;;;;4931553;29;20048;-79
2023/03/12 10:25:34;;;;;;;15.45;9.05;;;;;;;;;;4930472;29;20044;-79
2023/03/12 10:28:10;;;;;;;10.48;9.00;;;;;;;;;;4933587;29;20044;-79
2023/03/12 10:30:41;;;;;;;12.18;9.23;;;;;;;;;;4930787;29;20052;-79
2023/03/12 10:33:13;;;;;;;10.73;8.73;;;;;;;;;;4930823;29;20039;-82
2023/03/12 10:35:49;;;;;;;9.40;8.00;;;;;;;;;;4929926;29;20067;-79
2023/03/12 10:38:18;;;;;;;14.52;8.73;;;;;;;;;;4947503;28;20066;-79
2023/03/12 10:40:48;;;;;;;12.00;8.40;;;;;;;;;;4929537;29;20066;-78
2023/03/12 10:43:17;;;;;;;8.63;7.78;;;;;;;;;;4941710;28;20039;-78
2023/03/12 10:45:56;;;;;;;11.25;8.40;;;;;;;;;;4933635;29;20058;-78
2023/03/12 10:48:26;;;;;;;20.88;10.45;;;;;;;;;;4936837;29;20429;-78
2023/03/12 10:51:07;;;;;;;9.15;7.65;;;;;;;;;;4933098;29;20510;-78
2023/03/12 10:53:35;;;;;;;10.32;7.95;;;;;;;;;;4933856;29;20067;-78
2023/03/12 10:56:08;;;;;;;9.57;8.52;;;;;;;;;;4939893;29;20062;-79
2023/03/12 10:58:41;;;;;;;13.82;7.45;;;;;;;;;;4945629;28;20419;-78
2023/03/12 11:01:20;;;;;;;9.60;7.90;;;;;;;;;;4935081;29;20490;-78
2023/03/12 11:03:52;;;;;;;10.80;8.40;;;;;;;;;;4931850;29;20052;-78
2023/03/12 11:06:24;;;;;;;11.73;8.30;;;;;;;;;;4932933;29;20067;-79
2023/03/12 11:09:06;;;;;;;10.43;8.63;;;;;;;;;;4933298;29;20078;-78
2023/03/12 11:11:38;;;;;;;10.65;9.25;;;;;;;;;;4930648;29;20054;-79
2023/03/12 11:14:12;;;;;;;12.10;9.65;;;;;;;;;;4948578;28;20048;-78
2023/03/12 11:16:42;;;;;;;12.60;11.35;;;;;;;;;;4929325;29;20060;-78
2023/03/12 11:19:13;;;;;;;15.88;8.90;;;;;;;;;;4933847;29;20052;-78
2023/03/12 11:21:55;;;;;;;11.35;9.02;;;;;;;;;;4933870;29;20062;-78
2023/03/12 11:24:22;;;;;;;13.88;9.60;;;;;;;;;;4947539;28;20058;-78
2023/03/12 11:26:51;;;;;;;14.65;9.85;;;;;;;;;;4946469;28;20063;-78
2023/03/12 11:29:24;;;;;;;12.93;10.27;;;;;;;;;;4944030;28;20055;-78
2023/03/12 11:31:58;;;;;;;13.63;9.77;;;;;;;;;;4945452;28;20055;-78
2023/03/12 11:34:29;;;;;;;11.65;9.73;;;;;;;;;;4934055;29;20056;-78
2023/03/12 11:37:05;;;;;;;13.88;10.55;;;;;;;;;;4946963;28;20553;-78
2023/03/12 11:39:39;;;;;;;13.38;9.45;;;;;;;;;;4933486;29;20406;-78
2023/03/12 11:42:16;;;;;;;10.20;8.82;;;;;;;;;;4926595;29;20414;-78
2023/03/12 11:44:55;;;;;;;10.30;9.23;;;;;;;;;;4933991;29;20502;-78
2023/03/12 11:47:36;;;;;;;11.95;9.00;;;;;;;;;;4932282;29;20074;-78
2023/03/12 11:50:15;;;;;;;11.90;8.65;;;;;;;;;;4929485;29;20410;-78
2023/03/12 11:52:58;;;;;;;14.30;9.38;;;;;;;;;;4929070;29;20063;-78
2023/03/12 11:55:42;;;;;;;14.18;10.70;;;;;;;;;;4929929;29;20058;-79
2023/03/12 11:58:26;;;;;;;12.90;9.20;;;;;;;;;;4925678;29;20256;-78
2023/03/12 12:00:57;;;;;;;13.10;9.68;;;;;;;;;;4932883;29;20045;-78
2023/03/12 12:03:39;;;;;;;12.52;8.70;;;;;;;;;;4931832;29;20059;-78
2023/03/12 12:06:10;;;;;;;12.13;9.50;;;;;;;;;;4945667;28;20044;-78
2023/03/12 12:08:50;;;;;;;12.00;10.00;;;;;;;;;;4932154;29;20047;-78
2023/03/12 12:11:20;;;;;;;9.95;8.77;;;;;;;;;;4932130;29;20040;-78
2023/03/12 12:13:55;;;;;;;12.65;8.95;;;;;;;;;;4925557;29;20055;-78
2023/03/12 12:19:23;;;;;;;12.25;9.65;;;;;;;;;;4924627;29;20514;-79
2023/03/12 12:22:05;;;;;;;14.13;10.85;;;;;;;;;;4911502;29;20051;-79
2023/03/12 12:24:54;;;;;;;12.10;9.90;;;;;;;;;;4913677;29;20060;-81
2023/03/12 12:27:25;;;;;;;18.92;12.88;;;;;;;;;;4909813;29;20066;-78
2023/03/12 12:30:04;;;;;;;14.07;10.63;;;;;;;;;;4903884;29;20060;-78
2023/03/12 12:32:45;;;;;;;16.42;10.93;;;;;;;;;;4909721;29;20062;-79
2023/03/12 12:35:21;;;;;;;17.33;11.35;;;;;;;;;;4908456;29;20412;-79
2023/03/12 12:37:56;;;;;;;14.93;13.50;;;;;;;;;;4926957;29;20396;-79
2023/03/12 12:40:29;;;;;;;17.40;11.48;;;;;;;;;;4915791;29;20056;-79
2023/03/12 12:43:05;;;;;;;15.60;10.73;;;;;;;;;;4918141;29;20048;-79
2023/03/12 12:45:32;;;;;;;21.63;12.48;;;;;;;;;;4933963;29;20052;-79
2023/03/12 12:48:03;;;;;;;11.88;10.18;;;;;;;;;;4923199;29;20055;-79
2023/03/12 12:50:33;;;;;;;14.27;11.05;;;;;;;;;;4911524;29;20052;-79
2023/03/12 12:53:07;;;;;;;13.93;10.93;;;;;;;;;;4909214;29;20055;-79
2023/03/12 12:55:37;;;;;;;14.70;10.80;;;;;;;;;;4904396;29;20060;-79
2023/03/12 12:58:12;;;;;;;14.55;11.18;;;;;;;;;;4909679;29;20051;-79
2023/03/12 13:00:45;;;;;;;15.93;12.75;;;;;;;;;;4901960;29;20526;-79
2023/03/12 13:03:17;;;;;;;16.83;10.67;;;;;;;;;;4894119;29;20052;-79
2023/03/12 13:05:57;;;;;;;12.95;10.70;;;;;;;;;;4908351;29;20307;-79
2023/03/12 13:08:58;;;;;;;16.48;11.93;;;;;;;;;;4911030;29;20423;-79
2023/03/12 13:11:37;;;;;;;15.45;11.52;;;;;;;;;;4918513;29;20053;-79
2023/03/12 13:14:26;;;;;;;16.40;11.30;;;;;;;;;;4900800;29;20392;-79
2023/03/12 13:17:08;;;;;;;13.75;11.75;;;;;;;;;;4909344;29;20044;-79
2023/03/12 13:19:40;;;;;;;19.73;13.18;;;;;;;;;;4901270;29;20052;-79
2023/03/12 13:22:45;;;;;;;15.50;12.77;;;;;;;;;;4913393;29;20502;-79
2023/03/12 13:25:29;;;;;;;14.57;11.57;;;;;;;;;;4910188;29;20423;-79
2023/03/12 13:27:59;;;;;;;11.98;10.52;;;;;;;;;;4907580;29;20711;-79
2023/03/12 13:30:48;;;;;;;15.23;12.18;;;;;;;;;;4909554;29;20507;-79
2023/03/12 13:33:17;;;;;;;12.48;10.95;;;;;;;;;;4897353;29;20055;-79
2023/03/12 13:36:02;;;;;;;14.45;11.93;;;;;;;;;;4907246;29;20519;-79
2023/03/12 13:38:35;;;;;;;20.98;13.88;;;;;;;;;;4904202;29;20059;-79
2023/03/12 13:41:09;;;;;;;18.63;12.30;;;;;;;;;;4896625;29;20079;-79
2023/03/12 13:43:49;;;;;;;16.20;11.60;;;;;;;;;;4919165;29;20047;-79
2023/03/12 13:46:44;;;;;;;14.93;12.25;;;;;;;;;;4910170;29;20055;-79
2023/03/12 13:49:14;;;;;;;15.60;11.18;;;;;;;;;;4906648;29;20044;-79
2023/03/12 13:51:50;;;;;;;13.15;11.18;;;;;;;;;;4901438;29;20044;-79
2023/03/12 13:54:18;;;;;;;15.20;13.02;;;;;;;;;;4909301;29;20049;-79
2023/03/12 13:56:55;;;;;;;12.90;11.52;;;;;;;;;;4908509;29;20498;-79
2023/03/12 13:59:26;;;;;;;14.93;10.65;;;;;;;;;;4913902;29;20063;-79
2023/03/12 14:02:07;;;;;;;12.93;10.82;;;;;;;;;;4923021;29;20543;-79
2023/03/12 14:04:41;;;;;;;16.27;12.98;;;;;;;;;;4906057;29;20044;-79
2023/03/12 14:07:30;;;;;;;13.18;11.23;;;;;;;;;;4896387;29;20047;-79
2023/03/12 14:10:10;;;;;;;12.90;11.38;;;;;;;;;;4913402;29;20048;-79
2023/03/12 14:12:47;;;;;;;17.73;12.38;;;;;;;;;;4915013;29;20517;-79
2023/03/12 14:15:22;;;;;;;13.23;11.05;;;;;;;;;;4918291;29;20044;-79
2023/03/12 14:17:55;;;;;;;12.32;9.70;;;;;;;;;;4911875;29;20079;-79
2023/03/12 14:20:25;;;;;;;15.50;11.40;;;;;;;;;;4911877;29;20414;-79
2023/03/12 14:22:55;;;;;;;14.50;12.95;;;;;;;;;;4920926;29;20048;-79
2023/03/12 14:25:31;;;;;;;12.40;11.10;;;;;;;;;;4927469;29;20052;-79
2023/03/12 14:27:58;;;;;;;17.80;13.93;;;;;;;;;;4911724;29;20052;-79
2023/03/12 14:30:36;;;;;;;12.55;9.23;;;;;;;;;;4912070;29;20059;-79
2023/03/12 14:33:06;;;;;;;13.75;12.02;;;;;;;;;;4911843;29;20055;-79
2023/03/12 14:35:41;;;;;;;11.17;10.07;;;;;;;;;;4916413;29;20059;-79
2023/03/12 14:38:14;;;;;;;13.80;10.98;;;;;;;;;;4913926;29;20296;-79
2023/03/12 14:40:44;;;;;;;13.18;10.63;;;;;;;;;;4912908;29;20061;-79
2023/03/12 14:43:22;;;;;;;13.80;9.68;;;;;;;;;;4906128;29;20048;-80
2023/03/12 14:45:56;;;;;;;17.00;11.52;;;;;;;;;;4908585;29;20601;-79
2023/03/12 14:48:28;;;;;;;13.18;9.32;;;;;;;;;;4927802;29;20056;-79
2023/03/12 14:50:58;;;;;;;13.05;9.52;;;;;;;;;;4906485;29;20056;-79
2023/03/12 14:53:29;;;;;;;12.75;7.30;;;;;;;;;;4908697;29;20059;-79
2023/03/12 14:56:01;;;;;;;7.70;3.92;;;;;;;;;;4910638;29;20048;-80
2023/03/12 14:58:35;;;;;;;10.15;4.10;;;;;;;;;;4912058;29;20067;-79
2023/03/12 15:01:12;;;;;;;8.25;3.95;;;;;;;;;;4920138;29;20043;-80
2023/03/12 15:03:46;;;;;;;9.27;3.75;;;;;;;;;;4909261;29;20059;-80
2023/03/12 15:06:19;;;;;;;8.88;4.10;;;;;;;;;;4921294;29;20051;-80